sensor_id;sensor_type;location;lat;lon;timestamp;P1;durP1;ratioP1;P2;durP2;ratioP2
81821;SDS011;72257;52.384;4.882;2023-10-19T00:01:40;8.30;;;5.50;;
81821;SDS011;72257;52.384;4.882;2023-10-19T00:04:05;9.50;;;5.68;;
81821;SDS011;72257;52.384;4.882;2023-10-19T00:06:32;8.32;;;5.70;;
81821;SDS011;72257;52.384;4.882;2023-10-19T00:08:57;10.05;;;7.00;;
81821;SDS011;72257;52.384;4.882;2023-10-19T00:11:24;10.77;;;6.40;;
81821;SDS011;72257;52.384;4.882;2023-10-19T00:13:51;9.65;;;5.60;;
81821;SDS011;72257;52.384;4.882;2023-10-19T00:16:18;9.98;;;6.00;;
81821;SDS011;72257;52.384;4.882;2023-10-19T00:19:00;9.15;;;5.47;;
81821;SDS011;72257;52.384;4.882;2023-10-19T00:21:25;10.13;;;5.73;;
81821;SDS011;72257;52.384;4.882;2023-10-19T00:23:53;8.05;;;5.70;;
81821;SDS011;72257;52.384;4.882;2023-10-19T00:26:22;10.52;;;5.95;;
81821;SDS011;72257;52.384;4.882;2023-10-19T00:28:50;10.82;;;6.50;;
81821;SDS011;72257;52.384;4.882;2023-10-19T00:31:17;10.23;;;6.32;;
81821;SDS011;72257;52.384;4.882;2023-10-19T00:33:45;8.93;;;6.13;;
81821;SDS011;72257;52.384;4.882;2023-10-19T00:36:10;10.80;;;6.40;;
81821;SDS011;72257;52.384;4.882;2023-10-19T00:38:38;9.77;;;6.13;;
81821;SDS011;72257;52.384;4.882;2023-10-19T00:41:08;8.45;;;5.88;;
81821;SDS011;72257;52.384;4.882;2023-10-19T00:43:42;9.38;;;6.47;;
81821;SDS011;72257;52.384;4.882;2023-10-19T00:46:18;8.93;;;5.90;;
81821;SDS011;72257;52.384;4.882;2023-10-19T00:48:44;8.93;;;6.05;;
81821;SDS011;72257;52.384;4.882;2023-10-19T00:51:11;8.52;;;5.72;;
81821;SDS011;72257;52.384;4.882;2023-10-19T00:53:51;10.10;;;6.60;;
81821;SDS011;72257;52.384;4.882;2023-10-19T00:56:16;8.63;;;5.80;;
81821;SDS011;72257;52.384;4.882;2023-10-19T00:58:46;9.80;;;5.88;;
81821;SDS011;72257;52.384;4.882;2023-10-19T01:01:19;8.82;;;6.15;;
81821;SDS011;72257;52.384;4.882;2023-10-19T01:03:47;8.98;;;6.28;;
81821;SDS011;72257;52.384;4.882;2023-10-19T01:06:17;8.35;;;5.57;;
81821;SDS011;72257;52.384;4.882;2023-10-19T01:08:43;9.63;;;6.05;;
81821;SDS011;72257;52.384;4.882;2023-10-19T01:11:10;7.55;;;5.30;;
81821;SDS011;72257;52.384;4.882;2023-10-19T01:13:39;10.80;;;6.03;;
81821;SDS011;72257;52.384;4.882;2023-10-19T01:16:11;9.82;;;5.95;;
81821;SDS011;72257;52.384;4.882;2023-10-19T01:18:40;10.57;;;6.47;;
81821;SDS011;72257;52.384;4.882;2023-10-19T01:21:08;7.63;;;5.32;;
81821;SDS011;72257;52.384;4.882;2023-10-19T01:23:33;8.07;;;5.60;;
81821;SDS011;72257;52.384;4.882;2023-10-19T01:26:00;8.70;;;5.13;;
81821;SDS011;72257;52.384;4.882;2023-10-19T01:28:31;10.18;;;6.07;;
81821;SDS011;72257;52.384;4.882;2023-10-19T01:31:06;9.15;;;6.50;;
81821;SDS011;72257;52.384;4.882;2023-10-19T01:33:33;8.50;;;6.00;;
81821;SDS011;72257;52.384;4.882;2023-10-19T01:36:01;8.43;;;6.03;;
81821;SDS011;72257;52.384;4.882;2023-10-19T01:38:35;9.15;;;6.10;;
81821;SDS011;72257;52.384;4.882;2023-10-19T01:41:01;8.47;;;6.30;;
81821;SDS011;72257;52.384;4.882;2023-10-19T01:43:27;9.27;;;6.18;;
81821;SDS011;72257;52.384;4.882;2023-10-19T01:45:56;9.52;;;6.38;;
81821;SDS011;72257;52.384;4.882;2023-10-19T01:48:22;9.10;;;6.55;;
81821;SDS011;72257;52.384;4.882;2023-10-19T01:50:58;8.57;;;6.07;;
81821;SDS011;72257;52.384;4.882;2023-10-19T01:53:23;7.88;;;5.70;;
81821;SDS011;72257;52.384;4.882;2023-10-19T01:55:50;9.30;;;6.40;;
81821;SDS011;72257;52.384;4.882;2023-10-19T01:58:22;9.45;;;6.55;;
81821;SDS011;72257;52.384;4.882;2023-10-19T02:00:49;9.95;;;6.63;;
81821;SDS011;72257;52.384;4.882;2023-10-19T02:03:15;10.97;;;6.83;;
81821;SDS011;72257;52.384;4.882;2023-10-19T02:05:41;10.85;;;7.65;;
81821;SDS011;72257;52.384;4.882;2023-10-19T02:08:07;10.25;;;7.47;;
81821;SDS011;72257;52.384;4.882;2023-10-19T02:10:35;11.93;;;8.05;;
81821;SDS011;72257;52.384;4.882;2023-10-19T02:13:02;12.30;;;8.88;;
81821;SDS011;72257;52.384;4.882;2023-10-19T02:15:32;14.52;;;8.98;;
81821;SDS011;72257;52.384;4.882;2023-10-19T02:17:57;12.52;;;8.82;;
81821;SDS011;72257;52.384;4.882;2023-10-19T02:20:25;14.60;;;9.60;;
81821;SDS011;72257;52.384;4.882;2023-10-19T02:22:50;14.13;;;9.53;;
81821;SDS011;72257;52.384;4.882;2023-10-19T02:25:17;14.38;;;9.60;;
81821;SDS011;72257;52.384;4.882;2023-10-19T02:27:42;15.95;;;9.75;;
81821;SDS011;72257;52.384;4.882;2023-10-19T02:30:10;14.88;;;9.77;;
81821;SDS011;72257;52.384;4.882;2023-10-19T02:32:36;16.00;;;9.90;;
81821;SDS011;72257;52.384;4.882;2023-10-19T02:35:02;16.25;;;10.35;;
81821;SDS011;72257;52.384;4.882;2023-10-19T02:37:27;16.20;;;9.95;;
81821;SDS011;72257;52.384;4.882;2023-10-19T02:39:53;15.60;;;10.20;;
81821;SDS011;72257;52.384;4.882;2023-10-19T02:42:18;16.27;;;9.97;;
81821;SDS011;72257;52.384;4.882;2023-10-19T02:44:43;16.33;;;10.80;;
81821;SDS011;72257;52.384;4.882;2023-10-19T02:47:08;16.90;;;10.40;;
81821;SDS011;72257;52.384;4.882;2023-10-19T02:49:34;17.97;;;10.40;;
81821;SDS011;72257;52.384;4.882;2023-10-19T02:52:03;14.13;;;9.48;;
81821;SDS011;72257;52.384;4.882;2023-10-19T02:54:29;16.40;;;9.98;;
81821;SDS011;72257;52.384;4.882;2023-10-19T02:56:57;15.90;;;10.13;;
81821;SDS011;72257;52.384;4.882;2023-10-19T02:59:24;17.60;;;10.00;;
81821;SDS011;72257;52.384;4.882;2023-10-19T03:01:50;16.20;;;10.05;;
81821;SDS011;72257;52.384;4.882;2023-10-19T03:04:15;17.73;;;10.20;;
81821;SDS011;72257;52.384;4.882;2023-10-19T03:06:41;15.60;;;10.20;;
81821;SDS011;72257;52.384;4.882;2023-10-19T03:09:07;14.35;;;8.85;;
81821;SDS011;72257;52.384;4.882;2023-10-19T03:11:47;14.05;;;8.88;;
81821;SDS011;72257;52.384;4.882;2023-10-19T03:14:17;12.95;;;8.38;;
81821;SDS011;72257;52.384;4.882;2023-10-19T03:16:43;12.70;;;8.57;;
81821;SDS011;72257;52.384;4.882;2023-10-19T03:19:08;15.67;;;9.23;;
81821;SDS011;72257;52.384;4.882;2023-10-19T03:21:33;13.30;;;8.20;;
81821;SDS011;72257;52.384;4.882;2023-10-19T03:24:06;12.43;;;8.02;;
81821;SDS011;72257;52.384;4.882;2023-10-19T03:26:37;13.25;;;7.60;;
81821;SDS011;72257;52.384;4.882;2023-10-19T03:29:03;10.60;;;7.03;;
81821;SDS011;72257;52.384;4.882;2023-10-19T03:31:39;11.70;;;6.90;;
81821;SDS011;72257;52.384;4.882;2023-10-19T03:34:12;10.10;;;6.53;;
81821;SDS011;72257;52.384;4.882;2023-10-19T03:36:43;12.02;;;6.07;;
81821;SDS011;72257;52.384;4.882;2023-10-19T03:39:09;8.95;;;5.78;;
81821;SDS011;72257;52.384;4.882;2023-10-19T03:41:38;9.50;;;5.88;;
81821;SDS011;72257;52.384;4.882;2023-10-19T03:44:06;8.30;;;5.18;;
81821;SDS011;72257;52.384;4.882;2023-10-19T03:46:32;9.23;;;5.35;;
81821;SDS011;72257;52.384;4.882;2023-10-19T03:49:02;6.60;;;4.40;;
81821;SDS011;72257;52.384;4.882;2023-10-19T03:51:38;7.50;;;4.35;;
81821;SDS011;72257;52.384;4.882;2023-10-19T03:54:23;6.78;;;4.20;;
81821;SDS011;72257;52.384;4.882;2023-10-19T03:56:49;5.97;;;4.18;;
81821;SDS011;72257;52.384;4.882;2023-10-19T03:59:17;8.95;;;4.43;;
81821;SDS011;72257;52.384;4.882;2023-10-19T04:01:43;5.30;;;3.27;;
81821;SDS011;72257;52.384;4.882;2023-10-19T04:04:09;5.82;;;3.67;;
81821;SDS011;72257;52.384;4.882;2023-10-19T04:06:34;7.45;;;3.78;;
81821;SDS011;72257;52.384;4.882;2023-10-19T04:08:59;5.77;;;3.20;;
81821;SDS011;72257;52.384;4.882;2023-10-19T04:11:24;6.87;;;3.20;;
81821;SDS011;72257;52.384;4.882;2023-10-19T04:13:57;7.15;;;3.78;;
81821;SDS011;72257;52.384;4.882;2023-10-19T04:16:24;5.88;;;3.85;;
81821;SDS011;72257;52.384;4.882;2023-10-19T04:18:49;6.10;;;3.87;;
81821;SDS011;72257;52.384;4.882;2023-10-19T04:21:14;6.93;;;4.20;;
81821;SDS011;72257;52.384;4.882;2023-10-19T04:23:40;7.07;;;4.87;;
81821;SDS011;72257;52.384;4.882;2023-10-19T04:26:05;10.10;;;5.25;;
81821;SDS011;72257;52.384;4.882;2023-10-19T04:28:35;8.63;;;4.72;;
81821;SDS011;72257;52.384;4.882;2023-10-19T04:31:09;7.57;;;5.05;;
81821;SDS011;72257;52.384;4.882;2023-10-19T04:33:38;9.18;;;5.18;;
81821;SDS011;72257;52.384;4.882;2023-10-19T04:36:04;11.33;;;4.83;;
81821;SDS011;72257;52.384;4.882;2023-10-19T04:38:33;10.75;;;5.32;;
81821;SDS011;72257;52.384;4.882;2023-10-19T04:41:05;10.77;;;5.17;;
81821;SDS011;72257;52.384;4.882;2023-10-19T04:43:32;8.65;;;5.60;;
81821;SDS011;72257;52.384;4.882;2023-10-19T04:45:57;8.40;;;5.10;;
81821;SDS011;72257;52.384;4.882;2023-10-19T04:48:23;9.75;;;5.57;;
81821;SDS011;72257;52.384;4.882;2023-10-19T04:50:48;10.17;;;5.67;;
81821;SDS011;72257;52.384;4.882;2023-10-19T04:53:14;9.83;;;5.53;;
81821;SDS011;72257;52.384;4.882;2023-10-19T04:55:39;10.43;;;5.53;;
81821;SDS011;72257;52.384;4.882;2023-10-19T04:58:04;8.90;;;5.00;;
81821;SDS011;72257;52.384;4.882;2023-10-19T05:00:30;8.43;;;4.93;;
81821;SDS011;72257;52.384;4.882;2023-10-19T05:02:58;9.27;;;4.75;;
81821;SDS011;72257;52.384;4.882;2023-10-19T05:05:23;11.37;;;4.30;;
81821;SDS011;72257;52.384;4.882;2023-10-19T05:07:48;6.37;;;4.00;;
81821;SDS011;72257;52.384;4.882;2023-10-19T05:10:13;8.27;;;4.27;;
81821;SDS011;72257;52.384;4.882;2023-10-19T05:12:39;6.37;;;3.90;;
81821;SDS011;72257;52.384;4.882;2023-10-19T05:15:04;15.73;;;4.63;;
81821;SDS011;72257;52.384;4.882;2023-10-19T05:17:30;6.70;;;3.53;;
81821;SDS011;72257;52.384;4.882;2023-10-19T05:19:56;8.13;;;3.37;;
81821;SDS011;72257;52.384;4.882;2023-10-19T05:22:21;8.43;;;3.53;;
81821;SDS011;72257;52.384;4.882;2023-10-19T05:24:46;6.25;;;3.65;;
81821;SDS011;72257;52.384;4.882;2023-10-19T05:27:12;5.63;;;3.00;;
81821;SDS011;72257;52.384;4.882;2023-10-19T05:29:37;5.43;;;3.27;;
81821;SDS011;72257;52.384;4.882;2023-10-19T05:32:04;6.00;;;2.90;;
81821;SDS011;72257;52.384;4.882;2023-10-19T05:34:30;4.32;;;2.88;;
81821;SDS011;72257;52.384;4.882;2023-10-19T05:36:57;4.65;;;2.33;;
81821;SDS011;72257;52.384;4.882;2023-10-19T05:39:27;4.90;;;2.35;;
81821;SDS011;72257;52.384;4.882;2023-10-19T05:41:53;4.95;;;2.40;;
81821;SDS011;72257;52.384;4.882;2023-10-19T05:44:18;5.72;;;2.58;;
81821;SDS011;72257;52.384;4.882;2023-10-19T05:46:44;3.80;;;2.30;;
81821;SDS011;72257;52.384;4.882;2023-10-19T05:49:09;7.70;;;2.27;;
81821;SDS011;72257;52.384;4.882;2023-10-19T05:51:34;5.90;;;2.10;;
81821;SDS011;72257;52.384;4.882;2023-10-19T05:54:00;4.63;;;1.93;;
81821;SDS011;72257;52.384;4.882;2023-10-19T05:56:28;4.80;;;2.13;;
81821;SDS011;72257;52.384;4.882;2023-10-19T05:58:55;7.50;;;2.58;;
81821;SDS011;72257;52.384;4.882;2023-10-19T06:01:21;5.00;;;1.90;;
81821;SDS011;72257;52.384;4.882;2023-10-19T06:03:47;5.68;;;1.92;;
81821;SDS011;72257;52.384;4.882;2023-10-19T06:06:12;4.77;;;2.30;;
81821;SDS011;72257;52.384;4.882;2023-10-19T06:08:37;6.57;;;3.57;;
81821;SDS011;72257;52.384;4.882;2023-10-19T06:11:03;6.27;;;1.70;;
81821;SDS011;72257;52.384;4.882;2023-10-19T06:13:28;7.23;;;1.77;;
81821;SDS011;72257;52.384;4.882;2023-10-19T06:15:54;4.47;;;2.00;;
81821;SDS011;72257;52.384;4.882;2023-10-19T06:18:20;6.57;;;1.92;;
81821;SDS011;72257;52.384;4.882;2023-10-19T06:20:45;5.40;;;1.90;;
81821;SDS011;72257;52.384;4.882;2023-10-19T06:23:10;4.23;;;1.90;;
81821;SDS011;72257;52.384;4.882;2023-10-19T06:25:36;5.60;;;1.83;;
81821;SDS011;72257;52.384;4.882;2023-10-19T06:28:02;4.72;;;1.83;;
81821;SDS011;72257;52.384;4.882;2023-10-19T06:30:27;4.38;;;1.92;;
81821;SDS011;72257;52.384;4.882;2023-10-19T06:32:53;4.57;;;2.20;;
81821;SDS011;72257;52.384;4.882;2023-10-19T06:35:19;4.47;;;2.10;;
81821;SDS011;72257;52.384;4.882;2023-10-19T06:37:45;3.40;;;1.90;;
81821;SDS011;72257;52.384;4.882;2023-10-19T06:40:10;3.90;;;2.05;;
81821;SDS011;72257;52.384;4.882;2023-10-19T06:42:40;6.10;;;2.15;;
81821;SDS011;72257;52.384;4.882;2023-10-19T06:45:05;4.95;;;2.00;;
81821;SDS011;72257;52.384;4.882;2023-10-19T06:47:32;6.13;;;2.50;;
81821;SDS011;72257;52.384;4.882;2023-10-19T06:50:02;4.53;;;2.60;;
81821;SDS011;72257;52.384;4.882;2023-10-19T06:52:29;6.72;;;2.20;;
81821;SDS011;72257;52.384;4.882;2023-10-19T06:54:54;4.93;;;2.17;;
81821;SDS011;72257;52.384;4.882;2023-10-19T06:57:20;6.97;;;2.57;;
81821;SDS011;72257;52.384;4.882;2023-10-19T06:59:45;7.70;;;2.33;;
81821;SDS011;72257;52.384;4.882;2023-10-19T07:02:10;4.97;;;2.43;;
81821;SDS011;72257;52.384;4.882;2023-10-19T07:04:37;4.75;;;2.10;;
81821;SDS011;72257;52.384;4.882;2023-10-19T07:07:03;6.30;;;1.90;;
81821;SDS011;72257;52.384;4.882;2023-10-19T07:09:28;5.25;;;2.90;;
81821;SDS011;72257;52.384;4.882;2023-10-19T07:11:54;5.07;;;2.33;;
81821;SDS011;72257;52.384;4.882;2023-10-19T07:14:20;6.07;;;2.30;;
81821;SDS011;72257;52.384;4.882;2023-10-19T07:16:47;6.32;;;2.20;;
81821;SDS011;72257;52.384;4.882;2023-10-19T07:19:12;4.80;;;2.10;;
81821;SDS011;72257;52.384;4.882;2023-10-19T07:21:39;4.78;;;2.28;;
81821;SDS011;72257;52.384;4.882;2023-10-19T07:24:07;4.15;;;1.85;;
81821;SDS011;72257;52.384;4.882;2023-10-19T07:26:35;4.57;;;1.90;;
81821;SDS011;72257;52.384;4.882;2023-10-19T07:29:08;8.20;;;2.53;;
81821;SDS011;72257;52.384;4.882;2023-10-19T07:31:35;4.50;;;2.40;;
81821;SDS011;72257;52.384;4.882;2023-10-19T07:34:00;7.67;;;2.73;;
81821;SDS011;72257;52.384;4.882;2023-10-19T07:36:26;7.75;;;2.40;;
81821;SDS011;72257;52.384;4.882;2023-10-19T07:38:51;6.77;;;2.70;;
81821;SDS011;72257;52.384;4.882;2023-10-19T07:41:16;4.38;;;2.10;;
81821;SDS011;72257;52.384;4.882;2023-10-19T07:43:42;8.80;;;2.60;;
81821;SDS011;72257;52.384;4.882;2023-10-19T07:46:08;5.38;;;2.70;;
81821;SDS011;72257;52.384;4.882;2023-10-19T07:48:33;6.73;;;2.40;;
81821;SDS011;72257;52.384;4.882;2023-10-19T07:50:58;9.33;;;2.60;;
81821;SDS011;72257;52.384;4.882;2023-10-19T07:53:24;7.00;;;1.93;;
81821;SDS011;72257;52.384;4.882;2023-10-19T07:55:50;9.88;;;2.22;;
81821;SDS011;72257;52.384;4.882;2023-10-19T07:58:16;4.78;;;2.55;;
81821;SDS011;72257;52.384;4.882;2023-10-19T08:00:41;4.00;;;2.30;;
81821;SDS011;72257;52.384;4.882;2023-10-19T08:03:07;5.35;;;2.30;;
81821;SDS011;72257;52.384;4.882;2023-10-19T08:05:33;6.55;;;2.20;;
81821;SDS011;72257;52.384;4.882;2023-10-19T08:07:59;7.13;;;2.42;;
81821;SDS011;72257;52.384;4.882;2023-10-19T08:10:25;6.25;;;2.30;;
81821;SDS011;72257;52.384;4.882;2023-10-19T08:12:51;7.18;;;2.65;;
81821;SDS011;72257;52.384;4.882;2023-10-19T08:15:17;7.85;;;2.90;;
81821;SDS011;72257;52.384;4.882;2023-10-19T08:17:43;4.13;;;2.00;;
81821;SDS011;72257;52.384;4.882;2023-10-19T08:20:09;7.30;;;2.88;;
81821;SDS011;72257;52.384;4.882;2023-10-19T08:22:41;6.47;;;2.47;;
81821;SDS011;72257;52.384;4.882;2023-10-19T08:25:06;6.77;;;2.03;;
81821;SDS011;72257;52.384;4.882;2023-10-19T08:27:38;3.85;;;2.05;;
81821;SDS011;72257;52.384;4.882;2023-10-19T08:30:03;6.40;;;2.40;;
81821;SDS011;72257;52.384;4.882;2023-10-19T08:32:28;6.25;;;2.60;;
81821;SDS011;72257;52.384;4.882;2023-10-19T08:34:53;5.43;;;2.30;;
81821;SDS011;72257;52.384;4.882;2023-10-19T08:37:19;6.82;;;2.92;;
81821;SDS011;72257;52.384;4.882;2023-10-19T08:39:44;7.60;;;2.90;;
81821;SDS011;72257;52.384;4.882;2023-10-19T08:42:09;4.90;;;2.27;;
81821;SDS011;72257;52.384;4.882;2023-10-19T08:44:35;4.40;;;2.17;;
81821;SDS011;72257;52.384;4.882;2023-10-19T08:47:01;8.15;;;3.13;;
81821;SDS011;72257;52.384;4.882;2023-10-19T08:49:26;6.27;;;2.00;;
81821;SDS011;72257;52.384;4.882;2023-10-19T08:51:51;5.60;;;2.38;;
81821;SDS011;72257;52.384;4.882;2023-10-19T08:54:19;4.45;;;1.95;;
81821;SDS011;72257;52.384;4.882;2023-10-19T08:56:44;5.25;;;2.55;;
81821;SDS011;72257;52.384;4.882;2023-10-19T08:59:10;7.33;;;2.30;;
81821;SDS011;72257;52.384;4.882;2023-10-19T09:01:40;5.13;;;2.10;;
81821;SDS011;72257;52.384;4.882;2023-10-19T09:06:36;7.13;;;2.33;;
81821;SDS011;72257;52.384;4.882;2023-10-19T09:11:34;7.35;;;2.85;;
81821;SDS011;72257;52.384;4.882;2023-10-19T09:13:59;4.37;;;1.80;;
81821;SDS011;72257;52.384;4.882;2023-10-19T09:16:24;5.27;;;2.70;;
81821;SDS011;72257;52.384;4.882;2023-10-19T09:18:51;7.35;;;2.47;;
81821;SDS011;72257;52.384;4.882;2023-10-19T09:21:17;8.07;;;2.60;;
81821;SDS011;72257;52.384;4.882;2023-10-19T09:23:51;11.00;;;3.80;;
81821;SDS011;72257;52.384;4.882;2023-10-19T09:26:17;6.43;;;2.30;;
81821;SDS011;72257;52.384;4.882;2023-10-19T09:28:45;6.63;;;2.83;;
81821;SDS011;72257;52.384;4.882;2023-10-19T09:31:12;7.07;;;2.53;;
81821;SDS011;72257;52.384;4.882;2023-10-19T09:33:39;4.82;;;2.60;;
81821;SDS011;72257;52.384;4.882;2023-10-19T09:36:05;4.93;;;2.03;;
81821;SDS011;72257;52.384;4.882;2023-10-19T09:38:37;7.05;;;3.00;;
81821;SDS011;72257;52.384;4.882;2023-10-19T09:41:03;7.27;;;3.10;;
81821;SDS011;72257;52.384;4.882;2023-10-19T09:43:37;7.80;;;2.63;;
81821;SDS011;72257;52.384;4.882;2023-10-19T09:46:06;6.80;;;2.13;;
81821;SDS011;72257;52.384;4.882;2023-10-19T09:48:33;6.72;;;2.63;;
81821;SDS011;72257;52.384;4.882;2023-10-19T09:51:01;7.55;;;3.03;;
81821;SDS011;72257;52.384;4.882;2023-10-19T09:53:28;8.02;;;2.40;;
81821;SDS011;72257;52.384;4.882;2023-10-19T09:55:57;7.78;;;2.53;;
81821;SDS011;72257;52.384;4.882;2023-10-19T09:58:34;5.78;;;3.00;;
81821;SDS011;72257;52.384;4.882;2023-10-19T10:01:00;8.82;;;2.53;;
81821;SDS011;72257;52.384;4.882;2023-10-19T10:06:08;7.60;;;3.00;;
81821;SDS011;72257;52.384;4.882;2023-10-19T10:08:35;8.60;;;2.75;;
81821;SDS011;72257;52.384;4.882;2023-10-19T10:11:12;7.70;;;2.85;;
81821;SDS011;72257;52.384;4.882;2023-10-19T10:13:38;7.72;;;2.92;;
81821;SDS011;72257;52.384;4.882;2023-10-19T10:16:03;7.97;;;2.75;;
81821;SDS011;72257;52.384;4.882;2023-10-19T10:18:32;7.82;;;2.97;;
81821;SDS011;72257;52.384;4.882;2023-10-19T10:23:45;7.85;;;2.60;;
81821;SDS011;72257;52.384;4.882;2023-10-19T10:26:12;10.23;;;3.40;;
81821;SDS011;72257;52.384;4.882;2023-10-19T10:28:39;8.60;;;3.50;;
81821;SDS011;72257;52.384;4.882;2023-10-19T10:33:39;8.68;;;2.53;;
81821;SDS011;72257;52.384;4.882;2023-10-19T10:36:08;9.63;;;3.22;;
81821;SDS011;72257;52.384;4.882;2023-10-19T10:38:33;13.82;;;3.40;;
81821;SDS011;72257;52.384;4.882;2023-10-19T10:41:00;9.57;;;2.88;;
81821;SDS011;72257;52.384;4.882;2023-10-19T10:43:26;6.07;;;3.35;;
81821;SDS011;72257;52.384;4.882;2023-10-19T10:45:52;7.72;;;2.83;;
81821;SDS011;72257;52.384;4.882;2023-10-19T10:48:18;7.47;;;2.63;;
81821;SDS011;72257;52.384;4.882;2023-10-19T10:50:47;9.20;;;3.40;;
81821;SDS011;72257;52.384;4.882;2023-10-19T10:53:12;12.53;;;3.17;;
81821;SDS011;72257;52.384;4.882;2023-10-19T10:55:38;5.63;;;2.75;;
81821;SDS011;72257;52.384;4.882;2023-10-19T10:58:04;6.15;;;2.60;;
81821;SDS011;72257;52.384;4.882;2023-10-19T11:00:29;8.75;;;2.97;;
81821;SDS011;72257;52.384;4.882;2023-10-19T11:03:02;9.43;;;3.05;;
81821;SDS011;72257;52.384;4.882;2023-10-19T11:05:29;6.68;;;3.42;;
81821;SDS011;72257;52.384;4.882;2023-10-19T11:08:04;7.30;;;2.80;;
81821;SDS011;72257;52.384;4.882;2023-10-19T11:10:30;8.80;;;3.35;;
81821;SDS011;72257;52.384;4.882;2023-10-19T11:13:11;15.68;;;4.03;;
81821;SDS011;72257;52.384;4.882;2023-10-19T11:15:37;8.43;;;2.90;;
81821;SDS011;72257;52.384;4.882;2023-10-19T11:18:03;8.52;;;2.75;;
81821;SDS011;72257;52.384;4.882;2023-10-19T11:20:28;7.57;;;2.72;;
81821;SDS011;72257;52.384;4.882;2023-10-19T11:22:54;11.73;;;3.80;;
81821;SDS011;72257;52.384;4.882;2023-10-19T11:25:26;9.40;;;2.55;;
81821;SDS011;72257;52.384;4.882;2023-10-19T11:27:53;7.07;;;2.70;;
81821;SDS011;72257;52.384;4.882;2023-10-19T11:30:23;7.47;;;2.17;;
81821;SDS011;72257;52.384;4.882;2023-10-19T11:32:48;8.90;;;2.80;;
81821;SDS011;72257;52.384;4.882;2023-10-19T11:35:17;11.25;;;3.47;;
81821;SDS011;72257;52.384;4.882;2023-10-19T11:37:46;6.83;;;3.27;;
81821;SDS011;72257;52.384;4.882;2023-10-19T11:40:12;7.13;;;3.28;;
81821;SDS011;72257;52.384;4.882;2023-10-19T11:42:37;11.23;;;2.80;;
81821;SDS011;72257;52.384;4.882;2023-10-19T11:45:03;9.10;;;2.60;;
81821;SDS011;72257;52.384;4.882;2023-10-19T11:47:28;10.87;;;2.70;;
81821;SDS011;72257;52.384;4.882;2023-10-19T11:49:53;8.40;;;3.13;;
81821;SDS011;72257;52.384;4.882;2023-10-19T11:52:19;8.05;;;2.88;;
81821;SDS011;72257;52.384;4.882;2023-10-19T11:54:44;9.27;;;2.83;;
81821;SDS011;72257;52.384;4.882;2023-10-19T11:57:09;9.77;;;3.80;;
81821;SDS011;72257;52.384;4.882;2023-10-19T11:59:34;5.95;;;2.58;;
81821;SDS011;72257;52.384;4.882;2023-10-19T12:02:00;8.13;;;2.40;;
81821;SDS011;72257;52.384;4.882;2023-10-19T12:04:28;6.90;;;2.60;;
81821;SDS011;72257;52.384;4.882;2023-10-19T12:06:54;9.57;;;3.55;;
81821;SDS011;72257;52.384;4.882;2023-10-19T12:09:20;6.65;;;2.65;;
81821;SDS011;72257;52.384;4.882;2023-10-19T12:11:49;7.72;;;2.70;;
81821;SDS011;72257;52.384;4.882;2023-10-19T12:14:14;8.27;;;2.55;;
81821;SDS011;72257;52.384;4.882;2023-10-19T12:16:40;8.17;;;3.07;;
81821;SDS011;72257;52.384;4.882;2023-10-19T12:19:05;13.57;;;3.33;;
81821;SDS011;72257;52.384;4.882;2023-10-19T12:21:32;11.50;;;4.30;;
81821;SDS011;72257;52.384;4.882;2023-10-19T12:23:58;7.70;;;2.35;;
81821;SDS011;72257;52.384;4.882;2023-10-19T12:26:24;8.23;;;2.40;;
81821;SDS011;72257;52.384;4.882;2023-10-19T12:28:49;6.67;;;2.30;;
81821;SDS011;72257;52.384;4.882;2023-10-19T12:31:15;10.07;;;2.70;;
81821;SDS011;72257;52.384;4.882;2023-10-19T12:33:43;8.40;;;2.60;;
81821;SDS011;72257;52.384;4.882;2023-10-19T12:36:10;12.25;;;2.92;;
81821;SDS011;72257;52.384;4.882;2023-10-19T12:38:53;9.07;;;2.55;;
81821;SDS011;72257;52.384;4.882;2023-10-19T12:41:19;8.45;;;2.70;;
81821;SDS011;72257;52.384;4.882;2023-10-19T12:43:45;9.75;;;4.03;;
81821;SDS011;72257;52.384;4.882;2023-10-19T12:46:17;9.88;;;3.65;;
81821;SDS011;72257;52.384;4.882;2023-10-19T12:48:44;8.32;;;3.20;;
81821;SDS011;72257;52.384;4.882;2023-10-19T12:51:11;9.63;;;3.65;;
81821;SDS011;72257;52.384;4.882;2023-10-19T12:53:37;6.60;;;2.80;;
81821;SDS011;72257;52.384;4.882;2023-10-19T12:56:03;9.82;;;3.17;;
81821;SDS011;72257;52.384;4.882;2023-10-19T12:58:29;13.23;;;3.60;;
81821;SDS011;72257;52.384;4.882;2023-10-19T13:00:54;7.32;;;3.08;;
81821;SDS011;72257;52.384;4.882;2023-10-19T13:03:21;9.38;;;3.42;;
81821;SDS011;72257;52.384;4.882;2023-10-19T13:05:47;6.90;;;2.85;;
81821;SDS011;72257;52.384;4.882;2023-10-19T13:08:14;8.50;;;3.03;;
81821;SDS011;72257;52.384;4.882;2023-10-19T13:10:41;8.60;;;3.35;;
81821;SDS011;72257;52.384;4.882;2023-10-19T13:13:10;6.97;;;2.75;;
81821;SDS011;72257;52.384;4.882;2023-10-19T13:15:40;8.27;;;3.13;;
81821;SDS011;72257;52.384;4.882;2023-10-19T13:18:06;9.40;;;2.72;;
81821;SDS011;72257;52.384;4.882;2023-10-19T13:20:34;10.55;;;2.70;;
81821;SDS011;72257;52.384;4.882;2023-10-19T13:23:00;8.23;;;3.08;;
81821;SDS011;72257;52.384;4.882;2023-10-19T13:25:26;9.32;;;3.03;;
81821;SDS011;72257;52.384;4.882;2023-10-19T13:28:05;7.85;;;2.67;;
81821;SDS011;72257;52.384;4.882;2023-10-19T13:30:30;9.07;;;3.10;;
81821;SDS011;72257;52.384;4.882;2023-10-19T13:32:56;9.38;;;2.78;;
81821;SDS011;72257;52.384;4.882;2023-10-19T13:35:21;7.83;;;3.00;;
81821;SDS011;72257;52.384;4.882;2023-10-19T13:37:47;12.63;;;3.75;;
81821;SDS011;72257;52.384;4.882;2023-10-19T13:40:12;7.77;;;3.20;;
81821;SDS011;72257;52.384;4.882;2023-10-19T13:42:38;7.70;;;3.30;;
81821;SDS011;72257;52.384;4.882;2023-10-19T13:45:03;8.87;;;3.40;;
81821;SDS011;72257;52.384;4.882;2023-10-19T13:47:29;10.00;;;3.63;;
81821;SDS011;72257;52.384;4.882;2023-10-19T13:49:58;9.32;;;3.00;;
81821;SDS011;72257;52.384;4.882;2023-10-19T13:52:23;8.80;;;3.27;;
81821;SDS011;72257;52.384;4.882;2023-10-19T13:54:50;13.60;;;3.00;;
81821;SDS011;72257;52.384;4.882;2023-10-19T13:57:16;11.52;;;4.30;;
81821;SDS011;72257;52.384;4.882;2023-10-19T13:59:41;10.13;;;3.60;;
81821;SDS011;72257;52.384;4.882;2023-10-19T14:02:06;9.37;;;3.87;;
81821;SDS011;72257;52.384;4.882;2023-10-19T14:04:33;22.85;;;5.05;;
81821;SDS011;72257;52.384;4.882;2023-10-19T14:06:58;7.20;;;2.80;;
81821;SDS011;72257;52.384;4.882;2023-10-19T14:09:24;8.52;;;3.85;;
81821;SDS011;72257;52.384;4.882;2023-10-19T14:11:51;10.30;;;4.05;;
81821;SDS011;72257;52.384;4.882;2023-10-19T14:14:16;13.30;;;3.50;;
81821;SDS011;72257;52.384;4.882;2023-10-19T14:16:41;9.30;;;3.10;;
81821;SDS011;72257;52.384;4.882;2023-10-19T14:19:09;12.88;;;3.13;;
81821;SDS011;72257;52.384;4.882;2023-10-19T14:21:34;8.70;;;2.77;;
81821;SDS011;72257;52.384;4.882;2023-10-19T14:26:27;12.05;;;3.47;;
81821;SDS011;72257;52.384;4.882;2023-10-19T14:28:52;11.37;;;3.23;;
81821;SDS011;72257;52.384;4.882;2023-10-19T14:31:19;8.85;;;3.63;;
81821;SDS011;72257;52.384;4.882;2023-10-19T14:33:45;8.77;;;2.78;;
81821;SDS011;72257;52.384;4.882;2023-10-19T14:36:10;10.33;;;3.00;;
81821;SDS011;72257;52.384;4.882;2023-10-19T14:38:35;11.10;;;3.60;;
81821;SDS011;72257;52.384;4.882;2023-10-19T14:41:01;9.93;;;3.80;;
81821;SDS011;72257;52.384;4.882;2023-10-19T14:43:26;9.93;;;3.30;;
81821;SDS011;72257;52.384;4.882;2023-10-19T14:45:54;10.23;;;4.05;;
81821;SDS011;72257;52.384;4.882;2023-10-19T14:48:19;10.37;;;3.63;;
81821;SDS011;72257;52.384;4.882;2023-10-19T14:50:44;9.43;;;3.53;;
81821;SDS011;72257;52.384;4.882;2023-10-19T14:53:09;8.70;;;3.97;;
81821;SDS011;72257;52.384;4.882;2023-10-19T14:55:35;9.50;;;3.33;;
81821;SDS011;72257;52.384;4.882;2023-10-19T14:58:01;10.00;;;3.63;;